sensor_id;sensor_type;location;lat;lon;timestamp;pressure;altitude;pressure_sealevel;temperature;humidity
21240;BME280;10778;48.962;9.018;2022-11-22T00:00:04;97136.91;;;4.11;100.00
21240;BME280;10778;48.962;9.018;2022-11-22T00:02:36;97143.09;;;4.10;100.00
21240;BME280;10778;48.962;9.018;2022-11-22T00:05:02;97138.84;;;4.09;100.00
21240;BME280;10778;48.962;9.018;2022-11-22T00:07:28;97128.56;;;4.07;100.00
21240;BME280;10778;48.962;9.018;2022-11-22T00:09:54;97120.50;;;4.29;100.00
21240;BME280;10778;48.962;9.018;2022-11-22T00:12:20;97112.69;;;4.29;100.00
21240;BME280;10778;48.962;9.018;2022-11-22T00:14:46;97103.25;;;4.27;100.00
21240;BME280;10778;48.962;9.018;2022-11-22T00:17:12;97099.22;;;4.15;100.00
21240;BME280;10778;48.962;9.018;2022-11-22T00:19:38;97103.22;;;4.09;100.00
21240;BME280;10778;48.962;9.018;2022-11-22T00:22:05;97110.81;;;4.03;100.00
21240;BME280;10778;48.962;9.018;2022-11-22T00:24:31;97098.59;;;4.03;100.00
21240;BME280;10778;48.962;9.018;2022-11-22T00:26:57;97103.94;;;4.02;100.00
21240;BME280;10778;48.962;9.018;2022-11-22T00:29:23;97099.72;;;4.01;100.00
21240;BME280;10778;48.962;9.018;2022-11-22T00:31:49;97091.47;;;4.05;100.00
21240;BME280;10778;48.962;9.018;2022-11-22T00:34:15;97093.94;;;4.07;100.00
21240;BME280;10778;48.962;9.018;2022-11-22T00:36:41;97101.97;;;4.13;100.00
21240;BME280;10778;48.962;9.018;2022-11-22T00:39:07;97099.66;;;4.10;100.00
21240;BME280;10778;48.962;9.018;2022-11-22T00:41:33;97103.22;;;4.09;100.00
21240;BME280;10778;48.962;9.018;2022-11-22T00:43:59;97110.06;;;4.10;100.00
21240;BME280;10778;48.962;9.018;2022-11-22T00:46:25;97107.63;;;4.09;100.00
21240;BME280;10778;48.962;9.018;2022-11-22T00:48:51;97117.72;;;4.12;100.00
21240;BME280;10778;48.962;9.018;2022-11-22T00:51:17;97107.19;;;4.13;100.00
21240;BME280;10778;48.962;9.018;2022-11-22T00:53:43;97122.94;;;4.12;100.00
21240;BME280;10778;48.962;9.018;2022-11-22T00:56:09;97134.31;;;4.11;100.00
21240;BME280;10778;48.962;9.018;2022-11-22T00:58:35;97140.47;;;4.10;100.00
21240;BME280;10778;48.962;9.018;2022-11-22T01:01:01;97144.44;;;4.14;100.00
21240;BME280;10778;48.962;9.018;2022-11-22T01:03:27;97147.31;;;4.11;100.00
21240;BME280;10778;48.962;9.018;2022-11-22T01:05:53;97153.63;;;4.08;100.00
21240;BME280;10778;48.962;9.018;2022-11-22T01:08:19;97165.16;;;4.06;100.00
21240;BME280;10778;48.962;9.018;2022-11-22T01:10:45;97166.50;;;4.10;100.00
21240;BME280;10778;48.962;9.018;2022-11-22T01:13:11;97166.88;;;4.15;100.00
21240;BME280;10778;48.962;9.018;2022-11-22T01:15:37;97156.09;;;4.10;100.00
21240;BME280;10778;48.962;9.018;2022-11-22T01:18:04;97166.63;;;4.08;100.00
21240;BME280;10778;48.962;9.018;2022-11-22T01:20:30;97165.53;;;4.11;100.00
21240;BME280;10778;48.962;9.018;2022-11-22T01:22:57;97171.00;;;4.18;100.00
21240;BME280;10778;48.962;9.018;2022-11-22T01:25:23;97171.00;;;4.18;100.00
21240;BME280;10778;48.962;9.018;2022-11-22T01:27:49;97163.19;;;4.18;100.00
21240;BME280;10778;48.962;9.018;2022-11-22T01:30:16;97162.88;;;4.21;100.00
21240;BME280;10778;48.962;9.018;2022-11-22T01:32:42;97163.00;;;4.19;100.00
21240;BME280;10778;48.962;9.018;2022-11-22T01:35:08;97165.13;;;4.16;100.00
21240;BME280;10778;48.962;9.018;2022-11-22T01:37:35;97160.88;;;4.33;100.00
21240;BME280;10778;48.962;9.018;2022-11-22T01:40:01;97159.44;;;4.48;100.00
21240;BME280;10778;48.962;9.018;2022-11-22T01:42:46;97174.06;;;4.31;100.00
21240;BME280;10778;48.962;9.018;2022-11-22T01:50:25;97179.72;;;4.26;100.00
21240;BME280;10778;48.962;9.018;2022-11-22T01:52:53;97188.63;;;4.24;100.00
21240;BME280;10778;48.962;9.018;2022-11-22T01:55:21;97189.22;;;4.18;100.00
21240;BME280;10778;48.962;9.018;2022-11-22T01:57:47;97182.06;;;4.20;100.00
21240;BME280;10778;48.962;9.018;2022-11-22T02:00:15;97172.03;;;4.25;100.00
21240;BME280;10778;48.962;9.018;2022-11-22T02:02:45;97178.44;;;4.31;100.00
21240;BME280;10778;48.962;9.018;2022-11-22T02:05:17;97183.34;;;4.34;100.00
21240;BME280;10778;48.962;9.018;2022-11-22T02:07:53;97188.97;;;4.39;100.00
21240;BME280;10778;48.962;9.018;2022-11-22T02:10:22;97186.31;;;4.49;100.00
21240;BME280;10778;48.962;9.018;2022-11-22T02:12:50;97182.13;;;4.56;100.00
21240;BME280;10778;48.962;9.018;2022-11-22T02:15:18;97176.63;;;4.59;100.00
21240;BME280;10778;48.962;9.018;2022-11-22T02:17:44;97178.78;;;4.64;100.00
21240;BME280;10778;48.962;9.018;2022-11-22T02:20:10;97183.41;;;4.70;100.00
21240;BME280;10778;48.962;9.018;2022-11-22T02:25:55;97184.09;;;4.72;100.00
21240;BME280;10778;48.962;9.018;2022-11-22T02:28:22;97185.72;;;4.73;100.00
21240;BME280;10778;48.962;9.018;2022-11-22T02:30:49;97181.47;;;4.72;100.00
21240;BME280;10778;48.962;9.018;2022-11-22T02:33:15;97191.75;;;4.74;100.00
21240;BME280;10778;48.962;9.018;2022-11-22T02:35:43;97189.81;;;4.76;100.00
21240;BME280;10778;48.962;9.018;2022-11-22T02:38:13;97188.34;;;4.73;100.00
21240;BME280;10778;48.962;9.018;2022-11-22T02:40:48;97198.09;;;4.71;100.00
21240;BME280;10778;48.962;9.018;2022-11-22T02:43:35;97197.13;;;4.72;100.00
21240;BME280;10778;48.962;9.018;2022-11-22T02:46:07;97193.69;;;4.72;100.00
21240;BME280;10778;48.962;9.018;2022-11-22T02:48:33;97197.38;;;4.69;100.00
21240;BME280;10778;48.962;9.018;2022-11-22T02:51:00;97205.00;;;4.62;100.00
21240;BME280;10778;48.962;9.018;2022-11-22T02:53:29;97204.06;;;4.53;100.00
21240;BME280;10778;48.962;9.018;2022-11-22T02:55:55;97204.38;;;4.50;100.00
21240;BME280;10778;48.962;9.018;2022-11-22T02:58:21;97201.53;;;4.44;100.00
21240;BME280;10778;48.962;9.018;2022-11-22T03:00:47;97197.03;;;4.36;100.00
21240;BME280;10778;48.962;9.018;2022-11-22T03:03:13;97198.16;;;4.33;100.00
21240;BME280;10778;48.962;9.018;2022-11-22T03:05:38;97201.06;;;4.30;100.00
21240;BME280;10778;48.962;9.018;2022-11-22T03:08:05;97206.53;;;4.27;100.00
21240;BME280;10778;48.962;9.018;2022-11-22T03:10:31;97213.00;;;4.23;100.00
21240;BME280;10778;48.962;9.018;2022-11-22T03:12:57;97208.69;;;4.13;100.00
21240;BME280;10778;48.962;9.018;2022-11-22T03:15:24;97214.06;;;4.02;100.00
21240;BME280;10778;48.962;9.018;2022-11-22T03:18:01;97216.81;;;4.01;100.00
21240;BME280;10778;48.962;9.018;2022-11-22T03:20:28;97211.88;;;3.97;100.00
21240;BME280;10778;48.962;9.018;2022-11-22T03:22:54;97216.13;;;3.98;100.00
21240;BME280;10778;48.962;9.018;2022-11-22T03:25:20;97219.94;;;4.04;100.00
21240;BME280;10778;48.962;9.018;2022-11-22T03:27:47;97224.13;;;4.15;100.00
21240;BME280;10778;48.962;9.018;2022-11-22T03:30:14;97228.09;;;4.19;100.00
21240;BME280;10778;48.962;9.018;2022-11-22T03:32:40;97228.56;;;4.33;100.00
21240;BME280;10778;48.962;9.018;2022-11-22T03:35:07;97222.41;;;4.34;100.00
21240;BME280;10778;48.962;9.018;2022-11-22T03:37:33;97225.72;;;4.54;100.00
21240;BME280;10778;48.962;9.018;2022-11-22T03:39:59;97236.44;;;4.51;100.00
21240;BME280;10778;48.962;9.018;2022-11-22T03:42:25;97242.03;;;4.56;100.00
21240;BME280;10778;48.962;9.018;2022-11-22T03:44:51;97236.38;;;4.61;100.00
21240;BME280;10778;48.962;9.018;2022-11-22T03:47:17;97248.75;;;4.59;100.00
21240;BME280;10778;48.962;9.018;2022-11-22T03:49:43;97244.44;;;4.67;100.00
21240;BME280;10778;48.962;9.018;2022-11-22T03:52:10;97246.81;;;4.61;100.00
21240;BME280;10778;48.962;9.018;2022-11-22T03:54:36;97246.03;;;4.50;100.00
21240;BME280;10778;48.962;9.018;2022-11-22T03:57:02;97246.63;;;4.44;100.00
21240;BME280;10778;48.962;9.018;2022-11-22T03:59:28;97243.47;;;4.40;100.00
21240;BME280;10778;48.962;9.018;2022-11-22T04:01:54;97238.94;;;4.43;100.00
21240;BME280;10778;48.962;9.018;2022-11-22T04:04:20;97244.41;;;4.49;100.00
21240;BME280;10778;48.962;9.018;2022-11-22T04:06:46;97247.41;;;4.54;100.00
21240;BME280;10778;48.962;9.018;2022-11-22T04:09:12;97236.53;;;4.59;100.00
21240;BME280;10778;48.962;9.018;2022-11-22T04:11:38;97245.59;;;4.55;100.00
21240;BME280;10778;48.962;9.018;2022-11-22T04:14:04;97250.50;;;4.58;100.00
21240;BME280;10778;48.962;9.018;2022-11-22T04:16:49;97255.88;;;4.57;100.00
21240;BME280;10778;48.962;9.018;2022-11-22T04:19:15;97250.44;;;4.50;100.00
21240;BME280;10778;48.962;9.018;2022-11-22T04:21:41;97252.88;;;4.51;100.00
21240;BME280;10778;48.962;9.018;2022-11-22T04:24:09;97249.47;;;4.51;100.00
21240;BME280;10778;48.962;9.018;2022-11-22T04:26:54;97250.56;;;4.48;100.00
21240;BME280;10778;48.962;9.018;2022-11-22T04:29:21;97257.41;;;4.49;100.00
21240;BME280;10778;48.962;9.018;2022-11-22T04:31:49;97262.50;;;4.51;100.00
21240;BME280;10778;48.962;9.018;2022-11-22T04:34:35;97257.94;;;4.53;100.00
21240;BME280;10778;48.962;9.018;2022-11-22T04:37:01;97255.78;;;4.48;100.00
21240;BME280;10778;48.962;9.018;2022-11-22T04:39:27;97270.31;;;4.51;100.00
21240;BME280;10778;48.962;9.018;2022-11-22T04:41:55;97268.84;;;4.38;100.00
21240;BME280;10778;48.962;9.018;2022-11-22T04:44:44;97267.91;;;4.30;100.00
21240;BME280;10778;48.962;9.018;2022-11-22T04:47:13;97266.03;;;4.22;100.00
21240;BME280;10778;48.962;9.018;2022-11-22T04:50:00;97263.63;;;4.01;100.00
21240;BME280;10778;48.962;9.018;2022-11-22T04:52:27;97260.06;;;4.02;100.00
21240;BME280;10778;48.962;9.018;2022-11-22T04:55:12;97267.00;;;3.73;100.00
21240;BME280;10778;48.962;9.018;2022-11-22T04:57:38;97253.50;;;3.60;100.00
21240;BME280;10778;48.962;9.018;2022-11-22T05:00:04;97255.94;;;3.51;100.00
21240;BME280;10778;48.962;9.018;2022-11-22T05:02:30;97258.44;;;3.43;100.00
21240;BME280;10778;48.962;9.018;2022-11-22T05:04:56;97258.69;;;3.40;100.00
21240;BME280;10778;48.962;9.018;2022-11-22T05:07:22;97272.94;;;3.26;100.00
21240;BME280;10778;48.962;9.018;2022-11-22T05:09:48;97271.16;;;3.17;100.00
21240;BME280;10778;48.962;9.018;2022-11-22T05:12:14;97265.94;;;3.17;100.00
21240;BME280;10778;48.962;9.018;2022-11-22T05:14:40;97258.97;;;3.07;100.00
21240;BME280;10778;48.962;9.018;2022-11-22T05:17:06;97269.94;;;3.01;100.00
21240;BME280;10778;48.962;9.018;2022-11-22T05:19:32;97271.28;;;2.95;100.00
21240;BME280;10778;48.962;9.018;2022-11-22T05:21:58;97276.19;;;2.89;100.00
21240;BME280;10778;48.962;9.018;2022-11-22T05:24:24;97284.13;;;2.87;100.00
21240;BME280;10778;48.962;9.018;2022-11-22T05:26:50;97278.63;;;2.80;100.00
21240;BME280;10778;48.962;9.018;2022-11-22T05:29:16;97280.97;;;2.83;100.00
21240;BME280;10778;48.962;9.018;2022-11-22T05:31:42;97283.03;;;2.90;100.00
21240;BME280;10778;48.962;9.018;2022-11-22T05:34:08;97286.59;;;2.98;100.00
21240;BME280;10778;48.962;9.018;2022-11-22T05:36:34;97290.97;;;2.98;100.00
21240;BME280;10778;48.962;9.018;2022-11-22T05:39:01;97290.84;;;2.99;100.00
21240;BME280;10778;48.962;9.018;2022-11-22T05:41:27;97288.81;;;3.13;100.00
21240;BME280;10778;48.962;9.018;2022-11-22T05:43:54;97281.97;;;3.12;100.00
21240;BME280;10778;48.962;9.018;2022-11-22T05:46:26;97278.81;;;3.08;100.00
21240;BME280;10778;48.962;9.018;2022-11-22T05:48:54;97285.66;;;2.99;100.00
21240;BME280;10778;48.962;9.018;2022-11-22T05:51:27;97294.50;;;2.97;100.00
21240;BME280;10778;48.962;9.018;2022-11-22T05:53:54;97293.44;;;2.99;100.00
21240;BME280;10778;48.962;9.018;2022-11-22T05:56:22;97289.75;;;4.19;100.00
21240;BME280;10778;48.962;9.018;2022-11-22T05:58:49;97288.03;;;4.37;100.00
21240;BME280;10778;48.962;9.018;2022-11-22T06:01:17;97296.13;;;3.96;100.00
21240;BME280;10778;48.962;9.018;2022-11-22T06:03:44;97298.28;;;4.11;100.00
21240;BME280;10778;48.962;9.018;2022-11-22T06:06:11;97296.72;;;4.28;100.00
21240;BME280;10778;48.962;9.018;2022-11-22T06:08:38;97309.06;;;4.16;100.00
21240;BME280;10778;48.962;9.018;2022-11-22T06:13:41;97309.50;;;4.49;100.00
21240;BME280;10778;48.962;9.018;2022-11-22T06:16:09;97314.06;;;4.37;100.00
21240;BME280;10778;48.962;9.018;2022-11-22T06:18:36;97317.97;;;4.51;100.00
21240;BME280;10778;48.962;9.018;2022-11-22T06:21:06;97324.97;;;4.79;100.00
21240;BME280;10778;48.962;9.018;2022-11-22T06:23:32;97326.88;;;4.21;100.00
21240;BME280;10778;48.962;9.018;2022-11-22T06:26:07;97332.50;;;4.16;100.00
21240;BME280;10778;48.962;9.018;2022-11-22T06:28:35;97336.47;;;4.10;100.00
21240;BME280;10778;48.962;9.018;2022-11-22T06:31:19;97343.81;;;3.77;100.00
21240;BME280;10778;48.962;9.018;2022-11-22T06:33:45;97354.91;;;3.69;100.00
21240;BME280;10778;48.962;9.018;2022-11-22T06:36:16;97351.19;;;3.82;100.00
21240;BME280;10778;48.962;9.018;2022-11-22T06:38:44;97360.91;;;3.60;100.00
21240;BME280;10778;48.962;9.018;2022-11-22T06:41:15;97363.25;;;3.53;100.00
21240;BME280;10778;48.962;9.018;2022-11-22T06:43:42;97379.53;;;3.65;100.00
21240;BME280;10778;48.962;9.018;2022-11-22T06:46:10;97384.44;;;3.59;100.00
21240;BME280;10778;48.962;9.018;2022-11-22T06:48:38;97382.81;;;3.58;100.00
21240;BME280;10778;48.962;9.018;2022-11-22T06:51:12;97400.09;;;3.78;100.00
21240;BME280;10778;48.962;9.018;2022-11-22T06:53:38;97398.44;;;3.77;100.00
21240;BME280;10778;48.962;9.018;2022-11-22T06:56:14;97399.34;;;4.25;100.00
21240;BME280;10778;48.962;9.018;2022-11-22T06:58:42;97406.75;;;4.30;100.00
21240;BME280;10778;48.962;9.018;2022-11-22T07:01:20;97399.50;;;4.62;100.00
21240;BME280;10778;48.962;9.018;2022-11-22T07:03:47;97406.03;;;4.38;100.00
21240;BME280;10778;48.962;9.018;2022-11-22T07:06:15;97400.84;;;4.28;100.00
21240;BME280;10778;48.962;9.018;2022-11-22T07:08:42;97418.91;;;4.30;100.00
21240;BME280;10778;48.962;9.018;2022-11-22T07:11:17;97417.91;;;4.50;100.00
21240;BME280;10778;48.962;9.018;2022-11-22T07:13:44;97423.69;;;4.44;100.00
21240;BME280;10778;48.962;9.018;2022-11-22T07:16:13;97421.50;;;4.39;100.00
21240;BME280;10778;48.962;9.018;2022-11-22T07:18:40;97426.88;;;4.38;100.00
21240;BME280;10778;48.962;9.018;2022-11-22T07:21:08;97434.97;;;4.15;100.00
21240;BME280;10778;48.962;9.018;2022-11-22T07:23:34;97429.34;;;4.30;100.00
21240;BME280;10778;48.962;9.018;2022-11-22T07:26:00;97428.63;;;4.37;100.00
21240;BME280;10778;48.962;9.018;2022-11-22T07:28:26;97431.13;;;4.19;100.00
21240;BME280;10778;48.962;9.018;2022-11-22T07:30:57;97431.13;;;4.09;100.00
21240;BME280;10778;48.962;9.018;2022-11-22T07:33:23;97436.75;;;4.15;100.00
21240;BME280;10778;48.962;9.018;2022-11-22T07:35:49;97442.50;;;4.18;100.00
21240;BME280;10778;48.962;9.018;2022-11-22T07:38:15;97440.03;;;4.26;100.00
21240;BME280;10778;48.962;9.018;2022-11-22T07:40:41;97437.81;;;4.32;100.00
21240;BME280;10778;48.962;9.018;2022-11-22T07:43:07;97431.38;;;4.36;100.00
21240;BME280;10778;48.962;9.018;2022-11-22T07:45:34;97431.91;;;4.39;100.00
21240;BME280;10778;48.962;9.018;2022-11-22T07:48:00;97431.81;;;4.31;100.00
21240;BME280;10778;48.962;9.018;2022-11-22T07:50:27;97443.16;;;4.40;100.00
21240;BME280;10778;48.962;9.018;2022-11-22T07:52:57;97448.94;;;4.14;100.00
21240;BME280;10778;48.962;9.018;2022-11-22T07:55:24;97455.09;;;4.13;100.00
21240;BME280;10778;48.962;9.018;2022-11-22T07:57:52;97457.16;;;4.09;100.00
21240;BME280;10778;48.962;9.018;2022-11-22T08:00:19;97470.59;;;4.05;100.00
21240;BME280;10778;48.962;9.018;2022-11-22T08:02:45;97459.06;;;3.97;100.00
21240;BME280;10778;48.962;9.018;2022-11-22T08:05:11;97467.16;;;3.94;100.00
21240;BME280;10778;48.962;9.018;2022-11-22T08:07:37;97474.41;;;3.91;100.00
21240;BME280;10778;48.962;9.018;2022-11-22T08:10:03;97476.75;;;3.94;100.00
21240;BME280;10778;48.962;9.018;2022-11-22T08:12:29;97481.00;;;4.05;100.00
21240;BME280;10778;48.962;9.018;2022-11-22T08:14:55;97480.84;;;3.96;100.00
21240;BME280;10778;48.962;9.018;2022-11-22T08:17:21;97484.41;;;3.95;100.00
21240;BME280;10778;48.962;9.018;2022-11-22T08:19:47;97483.47;;;3.96;100.00
21240;BME280;10778;48.962;9.018;2022-11-22T08:22:18;97484.13;;;3.98;100.00
21240;BME280;10778;48.962;9.018;2022-11-22T08:24:44;97491.53;;;3.93;100.00
21240;BME280;10778;48.962;9.018;2022-11-22T08:27:10;97484.81;;;4.01;100.00
21240;BME280;10778;48.962;9.018;2022-11-22T08:29:36;97494.28;;;4.02;100.00
21240;BME280;10778;48.962;9.018;2022-11-22T08:32:02;97483.34;;;4.08;100.00
21240;BME280;10778;48.962;9.018;2022-11-22T08:34:28;97482.94;;;4.12;100.00
21240;BME280;10778;48.962;9.018;2022-11-22T08:36:54;97479.75;;;4.29;100.00
21240;BME280;10778;48.962;9.018;2022-11-22T08:39:20;97478.78;;;4.30;100.00
21240;BME280;10778;48.962;9.018;2022-11-22T08:41:47;97477.72;;;4.32;100.00
21240;BME280;10778;48.962;9.018;2022-11-22T08:44:13;97469.22;;;4.40;100.00
21240;BME280;10778;48.962;9.018;2022-11-22T08:46:39;97473.97;;;4.45;100.00
21240;BME280;10778;48.962;9.018;2022-11-22T08:49:06;97471.50;;;4.53;100.00
21240;BME280;10778;48.962;9.018;2022-11-22T08:51:32;97471.91;;;4.58;100.00
21240;BME280;10778;48.962;9.018;2022-11-22T08:53:59;97458.47;;;4.63;100.00
21240;BME280;10778;48.962;9.018;2022-11-22T08:56:25;97461.31;;;4.69;100.00
21240;BME280;10778;48.962;9.018;2022-11-22T08:58:52;97459.78;;;4.77;100.00
21240;BME280;10778;48.962;9.018;2022-11-22T09:01:19;97455.25;;;4.79;100.00
21240;BME280;10778;48.962;9.018;2022-11-22T09:03:46;97451.72;;;4.80;100.00
21240;BME280;10778;48.962;9.018;2022-11-22T09:06:14;97446.59;;;4.88;100.00
21240;BME280;10778;48.962;9.018;2022-11-22T09:08:41;97451.81;;;4.88;100.00
21240;BME280;10778;48.962;9.018;2022-11-22T09:11:10;97445.22;;;4.94;100.00
21240;BME280;10778;48.962;9.018;2022-11-22T09:13:38;97442.97;;;4.99;100.00
21240;BME280;10778;48.962;9.018;2022-11-22T09:16:09;97439.06;;;5.13;100.00
21240;BME280;10778;48.962;9.018;2022-11-22T09:18:36;97445.13;;;5.13;100.00
21240;BME280;10778;48.962;9.018;2022-11-22T09:21:04;97446.88;;;5.23;100.00
21240;BME280;10778;48.962;9.018;2022-11-22T09:23:31;97440.94;;;5.31;100.00
21240;BME280;10778;48.962;9.018;2022-11-22T09:28:27;97448.91;;;5.47;100.00
21240;BME280;10778;48.962;9.018;2022-11-22T09:31:01;97441.72;;;5.59;100.00
21240;BME280;10778;48.962;9.018;2022-11-22T09:33:28;97448.41;;;5.62;100.00
21240;BME280;10778;48.962;9.018;2022-11-22T09:36:08;97449.97;;;5.73;100.00
21240;BME280;10778;48.962;9.018;2022-11-22T09:38:35;97448.81;;;5.85;100.00
21240;BME280;10778;48.962;9.018;2022-11-22T09:46:55;97463.28;;;5.97;100.00
21240;BME280;10778;48.962;9.018;2022-11-22T09:52:09;97472.66;;;5.90;100.00
21240;BME280;10778;48.962;9.018;2022-11-22T09:55:00;97481.25;;;6.01;100.00
21240;BME280;10778;48.962;9.018;2022-11-22T09:57:34;97481.69;;;5.96;100.00
21240;BME280;10778;48.962;9.018;2022-11-22T10:00:05;97482.19;;;6.09;100.00
21240;BME280;10778;48.962;9.018;2022-11-22T10:02:41;97487.56;;;6.08;100.00
21240;BME280;10778;48.962;9.018;2022-11-22T10:05:23;97483.81;;;6.10;100.00
21240;BME280;10778;48.962;9.018;2022-11-22T10:07:59;97485.84;;;6.17;100.00
21240;BME280;10778;48.962;9.018;2022-11-22T10:10:33;97486.78;;;6.34;100.00
21240;BME280;10778;48.962;9.018;2022-11-22T10:13:17;97482.22;;;6.36;100.00
21240;BME280;10778;48.962;9.018;2022-11-22T10:16:06;97484.25;;;6.42;100.00
21240;BME280;10778;48.962;9.018;2022-11-22T10:21:23;97488.16;;;6.64;100.00
21240;BME280;10778;48.962;9.018;2022-11-22T10:23:50;97496.31;;;6.61;100.00
21240;BME280;10778;48.962;9.018;2022-11-22T10:26:32;97495.09;;;6.74;100.00
21240;BME280;10778;48.962;9.018;2022-11-22T10:29:09;97497.94;;;6.62;99.45
21240;BME280;10778;48.962;9.018;2022-11-22T10:31:51;97505.22;;;6.77;99.13
21240;BME280;10778;48.962;9.018;2022-11-22T10:37:11;97509.16;;;6.81;98.74
21240;BME280;10778;48.962;9.018;2022-11-22T10:45:26;97508.97;;;7.01;96.25
21240;BME280;10778;48.962;9.018;2022-11-22T10:51:03;97514.81;;;6.94;97.83
21240;BME280;10778;48.962;9.018;2022-11-22T10:59:19;97506.94;;;7.21;97.69
21240;BME280;10778;48.962;9.018;2022-11-22T11:02:12;97518.38;;;7.20;98.95
21240;BME280;10778;48.962;9.018;2022-11-22T11:04:41;97507.13;;;7.19;94.51
21240;BME280;10778;48.962;9.018;2022-11-22T11:07:17;97507.34;;;7.34;93.66
21240;BME280;10778;48.962;9.018;2022-11-22T11:09:52;97498.50;;;7.35;93.67
21240;BME280;10778;48.962;9.018;2022-11-22T11:12:22;97489.47;;;7.73;95.03
21240;BME280;10778;48.962;9.018;2022-11-22T11:14:59;97488.81;;;7.71;91.20
21240;BME280;10778;48.962;9.018;2022-11-22T11:17:31;97490.75;;;7.60;89.65
21240;BME280;10778;48.962;9.018;2022-11-22T11:20:00;97483.53;;;7.54;88.00
21240;BME280;10778;48.962;9.018;2022-11-22T11:22:30;97469.47;;;7.55;89.38
21240;BME280;10778;48.962;9.018;2022-11-22T11:25:25;97472.78;;;7.65;89.08
21240;BME280;10778;48.962;9.018;2022-11-22T11:27:52;97469.28;;;7.48;85.86
21240;BME280;10778;48.962;9.018;2022-11-22T11:30:18;97464.56;;;7.60;84.77
21240;BME280;10778;48.962;9.018;2022-11-22T11:32:55;97465.72;;;7.58;86.29
21240;BME280;10778;48.962;9.018;2022-11-22T11:35:25;97473.72;;;7.56;85.05
21240;BME280;10778;48.962;9.018;2022-11-22T11:37:51;97467.59;;;7.82;86.27
21240;BME280;10778;48.962;9.018;2022-11-22T11:40:29;97464.50;;;7.95;86.50
21240;BME280;10778;48.962;9.018;2022-11-22T11:43:18;97463.97;;;7.83;84.41
21240;BME280;10778;48.962;9.018;2022-11-22T11:45:44;97460.53;;;7.82;83.20
21240;BME280;10778;48.962;9.018;2022-11-22T11:50:50;97454.31;;;7.83;82.29
21240;BME280;10778;48.962;9.018;2022-11-22T11:53:23;97453.88;;;7.96;81.70
21240;BME280;10778;48.962;9.018;2022-11-22T11:55:51;97445.66;;;7.83;79.44
21240;BME280;10778;48.962;9.018;2022-11-22T11:58:22;97448.59;;;7.80;78.75
21240;BME280;10778;48.962;9.018;2022-11-22T12:00:49;97445.66;;;7.91;79.90
21240;BME280;10778;48.962;9.018;2022-11-22T12:03:18;97445.31;;;7.94;79.70
21240;BME280;10778;48.962;9.018;2022-11-22T12:05:44;97440.75;;;7.88;77.77
21240;BME280;10778;48.962;9.018;2022-11-22T12:08:28;97439.13;;;8.04;78.03
21240;BME280;10778;48.962;9.018;2022-11-22T12:11:02;97435.84;;;8.02;78.42
21240;BME280;10778;48.962;9.018;2022-11-22T12:13:40;97432.88;;;8.13;75.91
21240;BME280;10778;48.962;9.018;2022-11-22T12:16:28;97426.50;;;8.49;76.74
21240;BME280;10778;48.962;9.018;2022-11-22T12:22:00;97425.19;;;8.53;76.21
21240;BME280;10778;48.962;9.018;2022-11-22T12:26:56;97430.28;;;8.21;74.67
21240;BME280;10778;48.962;9.018;2022-11-22T12:29:22;97417.50;;;8.26;76.09
21240;BME280;10778;48.962;9.018;2022-11-22T12:31:52;97416.06;;;8.24;76.35
21240;BME280;10778;48.962;9.018;2022-11-22T12:34:57;97423.91;;;8.07;75.41
21240;BME280;10778;48.962;9.018;2022-11-22T12:37:33;97412.44;;;8.17;75.92
21240;BME280;10778;48.962;9.018;2022-11-22T12:40:10;97412.09;;;8.20;76.13
21240;BME280;10778;48.962;9.018;2022-11-22T12:42:48;97414.41;;;8.15;75.91
21240;BME280;10778;48.962;9.018;2022-11-22T12:47:46;97399.50;;;8.07;76.23
21240;BME280;10778;48.962;9.018;2022-11-22T12:50:23;97400.81;;;8.11;77.37
21240;BME280;10778;48.962;9.018;2022-11-22T12:53:26;97407.38;;;8.07;77.19
21240;BME280;10778;48.962;9.018;2022-11-22T12:56:03;97401.97;;;8.00;79.53
21240;BME280;10778;48.962;9.018;2022-11-22T13:01:16;97394.56;;;8.29;76.34
21240;BME280;10778;48.962;9.018;2022-11-22T13:03:49;97387.16;;;9.45;78.48
21240;BME280;10778;48.962;9.018;2022-11-22T13:06:23;97393.59;;;9.66;75.72
21240;BME280;10778;48.962;9.018;2022-11-22T13:09:00;97393.19;;;9.54;73.39
21240;BME280;10778;48.962;9.018;2022-11-22T13:11:33;97384.19;;;9.48;74.57
21240;BME280;10778;48.962;9.018;2022-11-22T13:14:06;97384.25;;;9.63;73.77
21240;BME280;10778;48.962;9.018;2022-11-22T13:16:35;97399.94;;;9.17;73.17
21240;BME280;10778;48.962;9.018;2022-11-22T13:19:03;97394.72;;;8.52;74.43
21240;BME280;10778;48.962;9.018;2022-11-22T13:27:18;97392.66;;;7.97;77.96
21240;BME280;10778;48.962;9.018;2022-11-22T13:29:45;97401.13;;;7.91;78.68
21240;BME280;10778;48.962;9.018;2022-11-22T13:37:48;97402.13;;;7.82;78.12
21240;BME280;10778;48.962;9.018;2022-11-22T13:42:41;97408.19;;;7.74;77.42
21240;BME280;10778;48.962;9.018;2022-11-22T13:45:23;97409.31;;;7.63;78.83
21240;BME280;10778;48.962;9.018;2022-11-22T13:47:50;97406.72;;;7.80;78.76
21240;BME280;10778;48.962;9.018;2022-11-22T13:55:45;97409.72;;;7.34;76.82
21240;BME280;10778;48.962;9.018;2022-11-22T14:00:54;97409.09;;;7.48;77.92
21240;BME280;10778;48.962;9.018;2022-11-22T14:03:31;97412.88;;;7.46;78.55
21240;BME280;10778;48.962;9.018;2022-11-22T14:05:59;97414.34;;;7.48;78.70
21240;BME280;10778;48.962;9.018;2022-11-22T14:08:36;97407.94;;;7.34;77.77
21240;BME280;10778;48.962;9.018;2022-11-22T14:11:30;97415.94;;;7.33;79.08
21240;BME280;10778;48.962;9.018;2022-11-22T14:22:30;97410.63;;;7.16;79.95
21240;BME280;10778;48.962;9.018;2022-11-22T14:25:14;97417.22;;;7.29;79.70
21240;BME280;10778;48.962;9.018;2022-11-22T14:27:51;97421.28;;;7.15;80.68
21240;BME280;10778;48.962;9.018;2022-11-22T14:30:35;97435.28;;;7.05;78.69
21240;BME280;10778;48.962;9.018;2022-11-22T14:33:05;97431.22;;;7.11;80.29
21240;BME280;10778;48.962;9.018;2022-11-22T14:38:33;97433.44;;;6.97;80.54
21240;BME280;10778;48.962;9.018;2022-11-22T14:43:52;97438.47;;;6.91;79.51
21240;BME280;10778;48.962;9.018;2022-11-22T14:46:21;97438.66;;;6.89;79.76